Historyczne dane pomiarowe

Dodano dane terminowe – wersja testowa.

Dane z okresu 1951-2019

Wersja bazy: 1.34 [2019-03-16, lista zmian], aktualizacja planowana na 2019-04-15

Dane meteo z obszaru Polski uzyskane na podstawie danych udostępnionych przez Instytut Meteorologii i Gospodarki Wodnej – Państwowy Instytut Badawczy.

 

Wybierz Datę:    

       

TemperaturaWilgotnośćWiatrCiśnienieOpadyŚniegCzas trwania zjawisk
 Stacja t tx tn tng RH VA  wxwx mslp ppp RRR   cm mm wxwxwxwxwxwxwx
1975-07-16 20.8 26.7 15.4 11.8-- 3.3 1.3---- 0.0------------
1975-07-17 18.4 23.8 14.8 14.2-- 3.3 2.0---- 1.1------------
1975-07-18 21.4 26.0 9.2 7.2-- 0.0 0.3---- 0.0------------
1975-07-19 20.8 26.9 13.4 10.0-- 4.3 1.3---- 38.6------------
1975-07-20 17.4 19.8 16.0 16.0-- 7.7 0.3---- 16.8------------
1975-07-21 18.8 24.8 16.6 16.6-- 2.7 2.3---- 5.8------------
1975-07-22 21.0 26.3 14.2 13.0-- 1.0 1.0---- 0.0------------
1975-07-23 22.0 26.4 14.6 12.6-- 3.7 0.3---- 0.0------------
1975-07-24 21.2 29.2 14.8 12.8-- 2.7 2.3---- 6.7------------
1975-07-25 16.8 20.4 13.8 13.4-- 3.3 1.0---- 6.2------------
1975-07-26 15.3 18.4 12.2 12.6-- 5.0 3.0---- 4.0------------
1975-07-27 14.0 15.4 12.2 10.8-- 8.0 5.7---- 12.2------------
1975-07-28 18.4 22.2 13.8 13.0-- 3.7 2.3---- 0.0------------
1975-07-29 20.8 26.1 13.4 11.5-- 0.0 1.7---- 3.2------------
1975-07-30 18.2 21.0 13.0 11.0-- 6.3 1.0---- 6.7------------
1975-07-31 21.8 26.4 12.4 10.1-- 0.3 0.7---- 0.0------------
1975-08-01 19.2 25.1 14.1 11.3-- 4.7 0.7---- 0.0------------
1975-08-02 16.7 21.8 11.3 9.0-- 1.0 1.7---- 0.0------------
1975-08-03 20.2 23.7 13.9 11.3-- 3.7 0.7---- 0.0------------
1975-08-04 20.2 24.8 14.3 11.7-- 0.0 0.7---- 0.0------------
1975-08-05 22.7 27.1 13.5 10.9-- 0.0 0.7---- 0.0------------
1975-08-06 23.8 28.2 14.9 12.2-- 0.3 1.3---- 0.0------------
1975-08-07 24.8 30.0 16.0 12.2-- 0.3 1.0---- 0.0------------
1975-08-08 24.9 31.2 16.3 12.3-- 0.7 0.7---- 0.0------------
1975-08-09 25.6 31.2 14.7 11.3-- 0.0 1.0---- 2.0------------
1975-08-10 25.2 29.8 16.2 11.5-- 0.0 1.3---- 0.0------------
1975-08-11 24.0 28.4 13.2 10.0-- 0.0 0.7---- 0.0------------
1975-08-12 20.3 26.4 13.1 12.9-- 0.0 2.0---- 0.0------------
1975-08-13 15.0 21.2 7.5 8.2-- 0.7 2.0---- 0.0------------
1975-08-14 15.6 22.2 3.1 0.9-- 0.3 0.7---- 0.0------------
152.0 ms

 

Źródłem pochodzenia danych jest Instytut Meteorologii i Gospodarki Wodnej – Państwowy Instytut Badawczy. Dane Instytutu Meteorologii i Gospodarki Wodnej – Państwowego Instytutu Badawczego zostały przetworzone.

Dane źródłowe można odnaleźć na stronie https://dane.imgw.pl